Langley, Kentucky
Current Conditions -  °F | °C
As of 1:35 AM on Wednesday 28 Jan 2015 (Local Time) from KPBX Reporting Station
Light Snow Light Snow  
Wind Chill: 13°   Ceiling: 1800
Heat Index: 19°   Visibility: 3mi
Dew Point: 16°   Wind: 5mph
Humidity: 87%   Direction: 10°N
Pressure: 30.18"   Gusts: NA
Location:  37.53°N, 82.79°W
Report Text: KPBX 280635Z AUTO 01004KT 3SM -SN OVC018 M07/M09 A3018 RMK AO2 T10711090
Loading
Personal Weather Stations






























Interactive Weather Map New forecast layout! Learn more

10-Day Weather Forecast

Advertisements
Track Severe Weather on mobile